Terminal Aerodrome Forecast
Issued by NWS

Home | Current Version | Previous Version | Text Only | Print | Product List | Glossary On
Versions: 1 2 3 4 5 6 7 8 9 10 11 12 13 14 15 16 17 18 19 20 21 22 23
000
FTUS43 KPAH 251720
TAFCGI
TAF
KCGI 251720Z 2518/2618 28008G14KT P6SM FEW040
     FM260100 18005KT P6SM SKC
     FM261030 17010KT P6SM SCT045 BKN200
      TEMPO 2613/2617 FEW022 BKN050=

USA.gov is the U.S. government's official web portal to all federal, state and local government web resources and services.